GBYD/BJL METAR and TAF weather

Enter ICAO airport designator
Station Type Date Time Source
GBYD METAR 2019/02/23 17:00 UTC NOAA

GBYD 231700Z 06008KT 8000 NSC 36/03 Q1009


Station Type Date Time Source
GBYD Decoded METAR 2019/02/23 17:00 UTC NOAA

Banjul / Yundum, Gambia, The (GBYD) 13-21N 016-48W 36M
Feb 23, 2019 - 12:00 PM EST / 2019.02.23 1700 UTC
Wind: from the ENE (060 degrees) at 9 MPH (8 KT):0
Visibility: 4 mile(s):0
Temperature: 96 F (36 C)
Dew Point: 37 F (3 C)
Relative Humidity: 12%
Pressure (altimeter): 29.80 in. Hg (1009 hPa)
ob: GBYD 231700Z 06008KT 8000 NSC 36/03 Q1009
cycle: 17

Station Type Date Time Source
GBYD TAF 2019/02/23 12:51 UTC NOAA

TAF TAF GBYD 231130Z 2312/2418 03010KT 8000 NSC
BECMG 2315/2317 4000 DU


Example: see airport list